CYPH

Details ICAO CYPH (YPH)
Name Inukjuak
Region Canada
Timezone America/Montreal (UTC-5.0)
Plans Departing 5
Arriving 6
Stats Elevation 78 ft / 24 m (AMSL)
Location 58.471815° -78.077222°
Runways 1
Magnetic Variation 18.122° W
Sunrise 2017-12-17 13:59:25 UTC / 2017-12-17 08:59:25 Local
Sunset 2017-12-17 20:20:23 UTC / 2017-12-17 15:20:23 Local
Advertisement - Login to hide

Runways

ID Width Length Bearing (true) Bearing (mag) Surface Threshold Offset Overrun Length
23 131 ft / 40 m 3,915 ft / 1,193 m 46.70° 64.82° Gravel 0 ft / 0 m 0 ft / 0 m
5 131 ft / 40 m 3,915 ft / 1,193 m 226.71° 244.83° Gravel 0 ft / 0 m 0 ft / 0 m

Map

Weather


0- 5 10 15 20 25 30 35+ Temperature / ° C

Clouds and Precipitation
Forecast for 2017-12-18 06:00 UTC. Updated 3 minutes ago

Ground ~20,000 ft ~40,000 ft Winds

METAR

CYPH 180300Z AUTO 20006KT BKN023 OVC047 M11/M13 A2962 RMK WX MISG VIS MISG PCPN MISG SLP033

TAF

TAF CYPH 172340Z 1800/1812 FCST NOT AVBL DUE SENSORS INOP RMK FCST BASED ON AUTO OBS. NXT FCST BY 180600Z
Warning: Do not use this data for real-world aviation or navigation. No guarantee of current accuracy is given.